Time;durP1;ratioP1;P1;durP2;ratioP2;P2;SDS_P1;SDS_P2;PMS_P1;PMS_P2;Temp;Humidity;BMP_temperature;BMP_pressure;BME280_temperature;BME280_humidity;BME280_pressure;Samples;Min_cycle;Max_cycle;Signal;HPM_P1;HPM_P2
2022/03/16 00:01:42;;;;;;;206.43;101.50;;;;;;;;;;5080226;28;20343;-70
2022/03/16 00:04:07;;;;;;;202.02;101.47;;;;;;;;;;5082398;28;20320;-71
2022/03/16 00:06:32;;;;;;;159.75;84.00;;;;;;;;;;5077852;28;20102;-70
2022/03/16 00:08:58;;;;;;;140.93;76.18;;;;;;;;;;5076769;28;20064;-70
2022/03/16 00:11:23;;;;;;;147.98;79.25;;;;;;;;;;5076027;28;20081;-70
2022/03/16 00:13:48;;;;;;;177.93;101.03;;;;;;;;;;5069414;28;20112;-70
2022/03/16 00:16:14;;;;;;;212.55;117.80;;;;;;;;;;5078819;28;20032;-70
2022/03/16 00:18:39;;;;;;;167.75;91.47;;;;;;;;;;5081197;28;20886;-70
2022/03/16 00:21:04;;;;;;;116.80;60.92;;;;;;;;;;5084104;28;20070;-71
2022/03/16 00:23:30;;;;;;;62.42;34.75;;;;;;;;;;5073906;28;20031;-70
2022/03/16 00:25:55;;;;;;;102.30;56.10;;;;;;;;;;5081630;28;20027;-71
2022/03/16 00:28:21;;;;;;;111.68;57.70;;;;;;;;;;5075904;28;20024;-70
2022/03/16 00:30:46;;;;;;;117.32;62.00;;;;;;;;;;5085578;28;20443;-70
2022/03/16 00:33:11;;;;;;;125.18;65.25;;;;;;;;;;5084778;28;20060;-70
2022/03/16 00:35:37;;;;;;;125.85;61.53;;;;;;;;;;5084994;28;20046;-70
2022/03/16 00:38:03;;;;;;;170.85;81.82;;;;;;;;;;5076348;28;20024;-70
2022/03/16 00:40:29;;;;;;;173.40;85.60;;;;;;;;;;5086740;28;20040;-70
2022/03/16 00:42:54;;;;;;;180.15;89.68;;;;;;;;;;5075838;28;20430;-70
2022/03/16 00:45:19;;;;;;;215.05;109.53;;;;;;;;;;5084610;28;20058;-70
2022/03/16 00:47:45;;;;;;;220.68;109.65;;;;;;;;;;5083325;28;20059;-70
2022/03/16 00:50:10;;;;;;;255.65;121.40;;;;;;;;;;5085108;28;20024;-70
2022/03/16 00:52:35;;;;;;;270.33;133.02;;;;;;;;;;5084688;28;20423;-70
2022/03/16 00:55:01;;;;;;;206.32;102.47;;;;;;;;;;5085755;28;20032;-69
2022/03/16 00:57:26;;;;;;;214.98;107.43;;;;;;;;;;5075870;28;20020;-70
2022/03/16 00:59:52;;;;;;;219.20;105.72;;;;;;;;;;5075801;28;20467;-70
2022/03/16 01:02:17;;;;;;;227.93;112.57;;;;;;;;;;5086281;28;20355;-69
2022/03/16 01:04:42;;;;;;;180.05;89.07;;;;;;;;;;5077873;28;20123;-71
2022/03/16 01:07:08;;;;;;;192.77;96.22;;;;;;;;;;5083668;28;20451;-71
2022/03/16 01:09:34;;;;;;;167.35;85.88;;;;;;;;;;5084133;28;20036;-69
2022/03/16 01:12:00;;;;;;;170.73;82.53;;;;;;;;;;5084341;28;20088;-70
2022/03/16 01:14:26;;;;;;;182.85;93.03;;;;;;;;;;5085673;28;20036;-69
2022/03/16 01:16:51;;;;;;;173.93;86.75;;;;;;;;;;5080004;28;20031;-70
2022/03/16 01:19:17;;;;;;;152.73;77.13;;;;;;;;;;5080410;28;20450;-69
2022/03/16 01:21:42;;;;;;;149.40;74.68;;;;;;;;;;5084424;28;20089;-70
2022/03/16 01:24:08;;;;;;;152.55;78.20;;;;;;;;;;5083259;28;20038;-70
2022/03/16 01:26:34;;;;;;;95.75;47.35;;;;;;;;;;5082565;28;20039;-70
2022/03/16 01:29:01;;;;;;;115.90;64.35;;;;;;;;;;5083772;28;20431;-70
2022/03/16 01:31:26;;;;;;;104.75;54.55;;;;;;;;;;5086265;28;20028;-70
2022/03/16 01:33:52;;;;;;;146.18;74.38;;;;;;;;;;5084469;28;20032;-70
2022/03/16 01:36:17;;;;;;;170.10;89.43;;;;;;;;;;5077460;28;20093;-70
2022/03/16 01:38:42;;;;;;;184.52;96.05;;;;;;;;;;5082717;28;20465;-70
2022/03/16 01:41:08;;;;;;;193.32;101.43;;;;;;;;;;5089852;28;20059;-71
2022/03/16 01:43:33;;;;;;;184.23;98.80;;;;;;;;;;5082666;28;20027;-70
2022/03/16 01:45:58;;;;;;;171.25;89.10;;;;;;;;;;5085454;28;20026;-70
2022/03/16 01:48:24;;;;;;;112.53;61.20;;;;;;;;;;5084371;28;20413;-71
2022/03/16 01:50:49;;;;;;;112.88;58.05;;;;;;;;;;5081106;28;20031;-71
2022/03/16 01:53:15;;;;;;;84.53;46.20;;;;;;;;;;5079599;28;20054;-70
2022/03/16 01:55:41;;;;;;;82.25;44.50;;;;;;;;;;5080623;28;20024;-70
2022/03/16 01:58:07;;;;;;;68.72;40.03;;;;;;;;;;5071291;28;20359;-70
2022/03/16 02:00:32;;;;;;;61.88;36.17;;;;;;;;;;5071137;28;20028;-70
2022/03/16 02:02:58;;;;;;;63.92;39.17;;;;;;;;;;5079075;28;20135;-70
2022/03/16 02:05:23;;;;;;;90.35;51.15;;;;;;;;;;5077751;28;20032;-70
2022/03/16 02:07:49;;;;;;;73.78;41.95;;;;;;;;;;5071435;28;20060;-69
2022/03/16 02:10:15;;;;;;;64.22;38.33;;;;;;;;;;5072002;28;20504;-70
2022/03/16 02:12:44;;;;;;;66.00;41.67;;;;;;;;;;5069391;28;20048;-68
2022/03/16 02:15:11;;;;;;;52.53;32.00;;;;;;;;;;5075665;28;20031;-70
2022/03/16 02:17:36;;;;;;;64.53;37.60;;;;;;;;;;5056556;28;20097;-72
2022/03/16 02:20:01;;;;;;;71.30;42.65;;;;;;;;;;5073173;28;20394;-71
2022/03/16 02:22:28;;;;;;;80.93;43.75;;;;;;;;;;5063846;28;20122;-70
2022/03/16 02:24:54;;;;;;;45.25;26.17;;;;;;;;;;5078818;28;20062;-70
2022/03/16 02:27:19;;;;;;;31.20;18.58;;;;;;;;;;5078652;28;20451;-70
2022/03/16 02:29:44;;;;;;;27.80;16.90;;;;;;;;;;5083199;28;20092;-70
2022/03/16 02:32:10;;;;;;;26.80;18.15;;;;;;;;;;5077021;28;20098;-69
2022/03/16 02:34:35;;;;;;;36.00;23.88;;;;;;;;;;5076857;28;20431;-68
2022/03/16 02:37:00;;;;;;;32.28;19.25;;;;;;;;;;5085015;28;20334;-70
2022/03/16 02:39:26;;;;;;;27.52;17.08;;;;;;;;;;5083030;28;20450;-71
2022/03/16 02:41:52;;;;;;;31.02;20.42;;;;;;;;;;5083630;28;20035;-70
2022/03/16 02:44:17;;;;;;;30.83;19.42;;;;;;;;;;5081683;28;20377;-71
2022/03/16 02:46:43;;;;;;;31.60;18.75;;;;;;;;;;5085116;28;20055;-71
2022/03/16 02:49:08;;;;;;;42.58;25.10;;;;;;;;;;5083882;28;20034;-70
2022/03/16 02:51:34;;;;;;;25.67;16.02;;;;;;;;;;5083654;28;20016;-71
2022/03/16 02:53:59;;;;;;;36.58;21.15;;;;;;;;;;5082560;28;20024;-71
2022/03/16 02:56:27;;;;;;;44.65;22.88;;;;;;;;;;5083991;28;20077;-71
2022/03/16 02:58:52;;;;;;;66.53;34.22;;;;;;;;;;5080959;28;20036;-71
2022/03/16 03:01:17;;;;;;;42.22;23.40;;;;;;;;;;5081070;28;20428;-71
2022/03/16 03:03:43;;;;;;;54.35;29.95;;;;;;;;;;5072746;28;20430;-71
2022/03/16 03:06:08;;;;;;;66.72;36.83;;;;;;;;;;5082326;28;20024;-71
2022/03/16 03:08:33;;;;;;;55.42;32.20;;;;;;;;;;5083446;28;20020;-71
2022/03/16 03:11:00;;;;;;;65.63;36.70;;;;;;;;;;5081412;28;20028;-71
2022/03/16 03:13:26;;;;;;;59.50;35.30;;;;;;;;;;5082099;28;20104;-71
2022/03/16 03:15:51;;;;;;;62.15;34.20;;;;;;;;;;5082813;28;20340;-70
2022/03/16 03:18:17;;;;;;;64.10;38.85;;;;;;;;;;5081805;28;20039;-70
2022/03/16 03:20:42;;;;;;;56.92;32.88;;;;;;;;;;5083283;28;20051;-70
2022/03/16 03:23:07;;;;;;;55.33;29.08;;;;;;;;;;5080905;28;20029;-70
2022/03/16 03:25:33;;;;;;;47.95;26.98;;;;;;;;;;5079399;28;20413;-70
2022/03/16 03:27:58;;;;;;;32.15;17.85;;;;;;;;;;5077929;28;20044;-70
2022/03/16 03:30:24;;;;;;;31.45;20.13;;;;;;;;;;5081840;28;20036;-70
2022/03/16 03:32:49;;;;;;;35.08;22.17;;;;;;;;;;5084402;28;20028;-70
2022/03/16 03:35:15;;;;;;;32.88;19.60;;;;;;;;;;5084018;28;20024;-70
2022/03/16 03:37:40;;;;;;;28.65;17.20;;;;;;;;;;5082653;28;20024;-72
2022/03/16 03:40:06;;;;;;;29.45;16.52;;;;;;;;;;5082404;28;20056;-70
2022/03/16 03:42:31;;;;;;;29.27;17.92;;;;;;;;;;5077888;28;20027;-71
2022/03/16 03:44:56;;;;;;;34.67;19.63;;;;;;;;;;5072939;28;20439;-70
2022/03/16 03:47:22;;;;;;;30.25;17.95;;;;;;;;;;5072544;28;20023;-72
2022/03/16 03:49:47;;;;;;;49.45;31.80;;;;;;;;;;5081073;28;20089;-71
2022/03/16 03:52:13;;;;;;;34.97;22.45;;;;;;;;;;5081107;28;20070;-72
2022/03/16 03:54:39;;;;;;;34.70;19.60;;;;;;;;;;5062761;28;20028;-71
2022/03/16 03:57:04;;;;;;;29.25;18.55;;;;;;;;;;5082948;28;20446;-70
2022/03/16 03:59:30;;;;;;;33.08;19.23;;;;;;;;;;5085549;28;20046;-70
2022/03/16 04:01:55;;;;;;;33.40;20.35;;;;;;;;;;5084949;28;20019;-70
2022/03/16 04:04:21;;;;;;;31.20;19.33;;;;;;;;;;5067700;28;20103;-70
2022/03/16 04:06:46;;;;;;;31.60;18.50;;;;;;;;;;5083333;28;20023;-72
2022/03/16 04:09:11;;;;;;;53.40;29.75;;;;;;;;;;5079268;28;20031;-72
2022/03/16 04:11:37;;;;;;;58.17;31.98;;;;;;;;;;5086218;28;20443;-72
2022/03/16 04:14:03;;;;;;;24.77;14.90;;;;;;;;;;5070601;28;20063;-72
2022/03/16 04:16:28;;;;;;;18.88;11.30;;;;;;;;;;5084896;28;20123;-71
2022/03/16 04:18:54;;;;;;;16.90;11.07;;;;;;;;;;5084919;28;20028;-71
2022/03/16 04:21:20;;;;;;;17.80;11.57;;;;;;;;;;5084266;28;20040;-71
2022/03/16 04:23:45;;;;;;;19.30;12.15;;;;;;;;;;5077264;28;20088;-72
2022/03/16 04:26:11;;;;;;;19.17;12.10;;;;;;;;;;5076909;28;20408;-71
2022/03/16 04:28:36;;;;;;;34.45;19.55;;;;;;;;;;5085219;28;20035;-71
2022/03/16 04:31:01;;;;;;;41.50;22.98;;;;;;;;;;5083827;28;20458;-71
2022/03/16 04:33:27;;;;;;;34.50;20.05;;;;;;;;;;5085486;28;20028;-71
2022/03/16 04:35:52;;;;;;;28.77;17.10;;;;;;;;;;5085568;28;20043;-71
2022/03/16 04:38:19;;;;;;;26.85;16.95;;;;;;;;;;5084088;28;20027;-71
2022/03/16 04:40:44;;;;;;;37.33;23.95;;;;;;;;;;5080005;28;20085;-72
2022/03/16 04:43:10;;;;;;;29.40;18.63;;;;;;;;;;5077180;28;20032;-71
2022/03/16 04:45:38;;;;;;;51.85;32.83;;;;;;;;;;5085134;28;20165;-71
2022/03/16 04:48:07;;;;;;;112.50;59.40;;;;;;;;;;5074899;28;20055;-71
2022/03/16 04:50:32;;;;;;;87.57;49.42;;;;;;;;;;5074860;28;20162;-71
2022/03/16 04:52:58;;;;;;;108.60;65.05;;;;;;;;;;5074982;28;20107;-71
2022/03/16 04:55:23;;;;;;;82.90;48.85;;;;;;;;;;5078662;28;20170;-71
2022/03/16 04:57:48;;;;;;;51.00;29.17;;;;;;;;;;5084752;28;20067;-70
2022/03/16 05:00:14;;;;;;;40.42;24.80;;;;;;;;;;5076944;28;20035;-72
2022/03/16 05:02:39;;;;;;;53.65;28.30;;;;;;;;;;5079330;28;20019;-70
2022/03/16 05:05:05;;;;;;;76.72;36.85;;;;;;;;;;5082622;28;20024;-70
2022/03/16 05:07:30;;;;;;;88.78;40.20;;;;;;;;;;5083700;28;20032;-70
2022/03/16 05:09:56;;;;;;;146.02;81.97;;;;;;;;;;5083522;28;20043;-70
2022/03/16 05:12:21;;;;;;;83.25;46.92;;;;;;;;;;5084672;28;20831;-71
2022/03/16 05:14:47;;;;;;;104.03;56.63;;;;;;;;;;5085106;28;20035;-71
2022/03/16 05:17:12;;;;;;;102.05;57.40;;;;;;;;;;5084646;28;20094;-70
2022/03/16 05:19:37;;;;;;;81.25;43.40;;;;;;;;;;5080190;28;20040;-70
2022/03/16 05:22:03;;;;;;;74.25;41.08;;;;;;;;;;5080802;28;20027;-72
2022/03/16 05:24:28;;;;;;;51.25;30.05;;;;;;;;;;5086080;28;20065;-71
2022/03/16 05:26:53;;;;;;;30.42;18.75;;;;;;;;;;5078524;28;20335;-71
2022/03/16 05:29:19;;;;;;;26.27;15.70;;;;;;;;;;5085311;28;20181;-71
2022/03/16 05:31:44;;;;;;;108.60;51.70;;;;;;;;;;5084328;28;20031;-71
2022/03/16 05:34:10;;;;;;;33.38;19.02;;;;;;;;;;5083876;28;20024;-71
2022/03/16 05:36:35;;;;;;;32.78;16.40;;;;;;;;;;5083674;28;20024;-71
2022/03/16 05:39:01;;;;;;;19.65;12.02;;;;;;;;;;5083220;28;20027;-72
2022/03/16 05:41:26;;;;;;;149.75;85.28;;;;;;;;;;5085848;28;20032;-72
2022/03/16 05:43:52;;;;;;;72.88;38.88;;;;;;;;;;5078660;28;20039;-73
2022/03/16 05:46:17;;;;;;;75.40;46.20;;;;;;;;;;5076063;28;20051;-70
2022/03/16 05:48:43;;;;;;;63.85;42.35;;;;;;;;;;5072328;28;20115;-70
2022/03/16 05:51:08;;;;;;;81.10;54.38;;;;;;;;;;5076031;28;20023;-70
2022/03/16 05:53:34;;;;;;;96.88;62.33;;;;;;;;;;5075248;28;20108;-71
2022/03/16 05:55:59;;;;;;;75.72;48.67;;;;;;;;;;5084669;28;20020;-70
2022/03/16 05:58:25;;;;;;;204.02;104.47;;;;;;;;;;5084350;28;20016;-68
2022/03/16 06:00:50;;;;;;;86.80;44.40;;;;;;;;;;5084262;28;20036;-71
2022/03/16 06:03:15;;;;;;;86.38;53.90;;;;;;;;;;5072200;28;20031;-70
2022/03/16 06:05:41;;;;;;;98.13;53.05;;;;;;;;;;5082236;28;20098;-70
2022/03/16 06:08:06;;;;;;;92.00;54.33;;;;;;;;;;5082019;28;20439;-70
2022/03/16 06:10:31;;;;;;;106.38;60.38;;;;;;;;;;5084169;28;20039;-70
2022/03/16 06:12:57;;;;;;;86.55;50.88;;;;;;;;;;5071070;28;20048;-71
2022/03/16 06:15:24;;;;;;;88.80;51.08;;;;;;;;;;5083039;28;20064;-72
2022/03/16 06:17:49;;;;;;;85.80;50.17;;;;;;;;;;5083712;28;20338;-72
2022/03/16 06:20:15;;;;;;;96.25;55.53;;;;;;;;;;5076128;28;20036;-70
2022/03/16 06:22:40;;;;;;;123.43;70.95;;;;;;;;;;5082787;28;20362;-70
2022/03/16 06:25:06;;;;;;;162.75;93.40;;;;;;;;;;5076377;28;20054;-70
2022/03/16 06:27:31;;;;;;;151.15;79.32;;;;;;;;;;5079156;28;20435;-70
2022/03/16 06:29:56;;;;;;;165.10;85.20;;;;;;;;;;5083369;28;20359;-71
2022/03/16 06:32:22;;;;;;;170.98;89.03;;;;;;;;;;5082580;28;20065;-71
2022/03/16 06:34:47;;;;;;;178.93;85.68;;;;;;;;;;5083840;28;20036;-71
2022/03/16 06:37:12;;;;;;;259.73;137.48;;;;;;;;;;5082125;28;20094;-71
2022/03/16 06:39:38;;;;;;;280.92;167.45;;;;;;;;;;5082698;28;20510;-72
2022/03/16 06:42:03;;;;;;;200.75;115.13;;;;;;;;;;5082624;28;20043;-70
2022/03/16 06:44:29;;;;;;;209.55;123.70;;;;;;;;;;5085288;28;20027;-67
2022/03/16 06:46:54;;;;;;;158.20;88.63;;;;;;;;;;5062370;28;20020;-70
2022/03/16 06:49:19;;;;;;;129.25;68.72;;;;;;;;;;5076787;28;20060;-70
2022/03/16 06:51:45;;;;;;;82.78;42.88;;;;;;;;;;5080545;28;20431;-69
2022/03/16 06:54:10;;;;;;;56.50;30.55;;;;;;;;;;5076368;28;20388;-68
2022/03/16 06:56:35;;;;;;;73.30;41.50;;;;;;;;;;5084083;28;20077;-69
2022/03/16 06:59:01;;;;;;;212.38;104.68;;;;;;;;;;5081170;28;20583;-69
2022/03/16 07:01:26;;;;;;;342.92;179.88;;;;;;;;;;5082928;28;20038;-72
2022/03/16 07:03:51;;;;;;;208.73;99.57;;;;;;;;;;5080911;28;20032;-72
2022/03/16 07:06:17;;;;;;;166.40;78.13;;;;;;;;;;5084126;28;20355;-70
2022/03/16 07:08:42;;;;;;;239.88;114.22;;;;;;;;;;5082736;28;20111;-70
2022/03/16 07:11:07;;;;;;;292.48;134.48;;;;;;;;;;5078416;28;20019;-70
2022/03/16 07:13:33;;;;;;;221.57;112.72;;;;;;;;;;5069741;28;20036;-72
2022/03/16 07:15:59;;;;;;;319.30;152.05;;;;;;;;;;5072674;28;20481;-70
2022/03/16 07:18:24;;;;;;;347.88;147.35;;;;;;;;;;5070057;28;20868;-70
2022/03/16 07:20:49;;;;;;;256.92;120.15;;;;;;;;;;5071145;28;20032;-70
2022/03/16 07:23:16;;;;;;;264.65;134.80;;;;;;;;;;5073179;28;20813;-70
2022/03/16 07:25:43;;;;;;;181.85;97.82;;;;;;;;;;5070926;28;20024;-70
2022/03/16 07:28:09;;;;;;;170.30;97.97;;;;;;;;;;5070704;28;20466;-71
2022/03/16 07:30:35;;;;;;;177.52;102.15;;;;;;;;;;5071195;28;20028;-70
2022/03/16 07:33:01;;;;;;;134.73;76.65;;;;;;;;;;5070927;28;20023;-72
2022/03/16 07:35:27;;;;;;;106.35;62.58;;;;;;;;;;5079266;28;20024;-72
2022/03/16 07:37:53;;;;;;;101.07;58.65;;;;;;;;;;5083369;28;20354;-72
2022/03/16 07:40:19;;;;;;;106.60;56.13;;;;;;;;;;5082851;28;20042;-72
2022/03/16 07:42:45;;;;;;;81.00;42.03;;;;;;;;;;5082328;28;20024;-72
2022/03/16 07:45:11;;;;;;;89.13;48.42;;;;;;;;;;5074602;28;20790;-71
2022/03/16 07:47:36;;;;;;;138.93;73.82;;;;;;;;;;5071773;28;20020;-71
2022/03/16 07:50:01;;;;;;;174.95;100.13;;;;;;;;;;5071012;28;20383;-71
2022/03/16 07:52:27;;;;;;;203.93;110.97;;;;;;;;;;5081344;28;20046;-72
2022/03/16 07:54:52;;;;;;;172.95;93.88;;;;;;;;;;5079545;28;20358;-72
2022/03/16 07:57:17;;;;;;;181.32;112.00;;;;;;;;;;5070996;28;20176;-71
2022/03/16 07:59:43;;;;;;;73.22;47.58;;;;;;;;;;5071524;28;20023;-72
2022/03/16 08:02:08;;;;;;;92.00;47.55;;;;;;;;;;5071349;28;20028;-72
2022/03/16 08:04:34;;;;;;;352.20;131.40;;;;;;;;;;5078779;28;20024;-72
2022/03/16 08:06:59;;;;;;;186.13;64.68;;;;;;;;;;5072135;28;23376;-72
2022/03/16 08:09:24;;;;;;;188.82;82.72;;;;;;;;;;5071266;28;20019;-72
2022/03/16 08:11:50;;;;;;;146.15;65.13;;;;;;;;;;5071673;28;20019;-72
2022/03/16 08:14:15;;;;;;;84.68;42.35;;;;;;;;;;5074347;28;20713;-71
2022/03/16 08:16:40;;;;;;;113.75;53.65;;;;;;;;;;5079464;28;20032;-72
2022/03/16 08:19:06;;;;;;;118.82;65.85;;;;;;;;;;5081128;28;20032;-71
2022/03/16 08:21:31;;;;;;;529.35;337.67;;;;;;;;;;5080497;28;20024;-69
2022/03/16 08:23:56;;;;;;;200.40;114.55;;;;;;;;;;5079221;28;20411;-71
2022/03/16 08:26:24;;;;;;;149.82;96.95;;;;;;;;;;5079908;28;20339;-71
2022/03/16 08:28:50;;;;;;;93.70;56.78;;;;;;;;;;5078120;28;20541;-72
2022/03/16 08:31:17;;;;;;;83.75;50.80;;;;;;;;;;5055542;28;20156;-72
2022/03/16 08:33:42;;;;;;;90.70;58.08;;;;;;;;;;5081292;28;20351;-71
2022/03/16 08:36:08;;;;;;;72.60;48.38;;;;;;;;;;5080329;28;20020;-70
2022/03/16 08:38:36;;;;;;;76.95;49.38;;;;;;;;;;5081175;28;20032;-72
2022/03/16 08:41:01;;;;;;;62.92;42.72;;;;;;;;;;5080638;28;20158;-70
2022/03/16 08:43:27;;;;;;;113.88;65.65;;;;;;;;;;5079986;28;20103;-73
2022/03/16 08:45:53;;;;;;;150.20;81.05;;;;;;;;;;5083721;28;20024;-70
2022/03/16 08:48:18;;;;;;;175.95;86.18;;;;;;;;;;5085124;28;20543;-71
2022/03/16 08:50:44;;;;;;;147.48;78.43;;;;;;;;;;5085169;28;20024;-72
2022/03/16 08:53:09;;;;;;;130.23;74.53;;;;;;;;;;5084438;28;20430;-70
2022/03/16 08:55:35;;;;;;;179.02;102.93;;;;;;;;;;5082203;28;20453;-72
2022/03/16 08:58:01;;;;;;;194.02;108.68;;;;;;;;;;5079343;28;20020;-70
2022/03/16 09:00:26;;;;;;;133.93;78.03;;;;;;;;;;5078262;28;20028;-71
2022/03/16 09:02:51;;;;;;;145.57;87.25;;;;;;;;;;5079340;28;20349;-70
2022/03/16 09:05:17;;;;;;;210.88;123.90;;;;;;;;;;5078778;28;20092;-69
2022/03/16 09:07:43;;;;;;;290.20;166.88;;;;;;;;;;5081488;28;20039;-71
2022/03/16 09:10:08;;;;;;;316.38;179.48;;;;;;;;;;5086221;28;20035;-70
2022/03/16 09:12:34;;;;;;;250.05;147.80;;;;;;;;;;5078667;28;20043;-69
2022/03/16 09:15:00;;;;;;;181.10;111.78;;;;;;;;;;5069347;28;20979;-69
2022/03/16 09:17:25;;;;;;;160.40;100.85;;;;;;;;;;5082889;28;20024;-70
2022/03/16 09:19:52;;;;;;;111.80;67.40;;;;;;;;;;5084033;28;20028;-70
2022/03/16 09:22:18;;;;;;;73.15;46.78;;;;;;;;;;5079328;28;20031;-73
2022/03/16 09:24:43;;;;;;;81.35;49.70;;;;;;;;;;5076723;28;20016;-72
2022/03/16 09:27:08;;;;;;;73.68;42.80;;;;;;;;;;5078695;28;20115;-71
2022/03/16 09:29:34;;;;;;;29.05;20.13;;;;;;;;;;5079532;28;20027;-71
2022/03/16 09:31:59;;;;;;;27.50;17.95;;;;;;;;;;5084646;28;20024;-71
2022/03/16 09:34:25;;;;;;;140.27;75.05;;;;;;;;;;5083990;28;20028;-72
2022/03/16 09:36:50;;;;;;;120.65;67.18;;;;;;;;;;5084029;28;20474;-71
2022/03/16 09:39:16;;;;;;;93.22;53.75;;;;;;;;;;5086705;28;20092;-70
2022/03/16 09:41:41;;;;;;;93.20;50.30;;;;;;;;;;5082557;28;20132;-69
2022/03/16 09:44:06;;;;;;;67.00;40.25;;;;;;;;;;5082534;28;20079;-72
2022/03/16 09:46:33;;;;;;;107.40;68.47;;;;;;;;;;5084749;28;20026;-70
2022/03/16 09:48:59;;;;;;;110.15;64.90;;;;;;;;;;5081275;28;20020;-71
2022/03/16 09:51:25;;;;;;;91.53;51.70;;;;;;;;;;5083585;28;20024;-70
2022/03/16 09:53:52;;;;;;;143.65;75.07;;;;;;;;;;5083730;28;20023;-72
2022/03/16 09:56:18;;;;;;;135.15;67.13;;;;;;;;;;5084058;28;20485;-71
2022/03/16 09:58:44;;;;;;;171.00;84.72;;;;;;;;;;5075309;28;20084;-72
2022/03/16 10:01:09;;;;;;;139.70;74.28;;;;;;;;;;5082011;28;20024;-74
2022/03/16 10:03:35;;;;;;;153.43;87.28;;;;;;;;;;5077331;28;20079;-71
2022/03/16 10:06:00;;;;;;;94.82;48.40;;;;;;;;;;5083759;28;20016;-71
2022/03/16 10:08:27;;;;;;;101.03;56.33;;;;;;;;;;5084959;28;20020;-72
2022/03/16 10:13:48;;;;;;;98.72;46.03;;;;;;;;;;5075092;28;20131;-71
2022/03/16 10:16:13;;;;;;;75.18;41.25;;;;;;;;;;5077105;28;20028;-72
2022/03/16 10:18:39;;;;;;;80.93;44.45;;;;;;;;;;5074502;28;20108;-71
2022/03/16 10:21:04;;;;;;;54.25;29.63;;;;;;;;;;5074981;28;20036;-68
2022/03/16 10:23:30;;;;;;;25.73;15.35;;;;;;;;;;5064751;28;20115;-73
2022/03/16 10:25:59;;;;;;;27.42;15.93;;;;;;;;;;5083604;28;20141;-72
2022/03/16 10:28:25;;;;;;;39.65;21.63;;;;;;;;;;5081658;28;20088;-71
2022/03/16 10:30:57;;;;;;;40.45;24.38;;;;;;;;;;5086606;28;20093;-71
2022/03/16 10:33:23;;;;;;;16.63;11.45;;;;;;;;;;5082402;28;20506;-71
2022/03/16 10:36:07;;;;;;;14.68;11.27;;;;;;;;;;5081756;28;20097;-70
2022/03/16 10:38:46;;;;;;;12.68;7.88;;;;;;;;;;5081261;28;20099;-70
2022/03/16 10:41:11;;;;;;;22.95;13.27;;;;;;;;;;5080876;28;20463;-71
2022/03/16 10:46:38;;;;;;;22.05;13.45;;;;;;;;;;5084342;28;20031;-74
2022/03/16 10:49:10;;;;;;;44.08;27.10;;;;;;;;;;5082166;28;20052;-72
2022/03/16 10:51:36;;;;;;;21.63;10.63;;;;;;;;;;5081959;28;20085;-74
2022/03/16 10:54:02;;;;;;;23.88;15.18;;;;;;;;;;5074042;28;20028;-72
2022/03/16 10:56:28;;;;;;;23.45;11.38;;;;;;;;;;5073519;28;20502;-74
2022/03/16 10:58:54;;;;;;;15.20;8.25;;;;;;;;;;5072043;28;20020;-72
2022/03/16 11:01:20;;;;;;;48.55;31.35;;;;;;;;;;5075281;28;20366;-70
2022/03/16 11:03:47;;;;;;;27.08;17.63;;;;;;;;;;5060723;28;20323;-71
2022/03/16 11:06:13;;;;;;;22.50;14.50;;;;;;;;;;5065322;28;20032;-73
2022/03/16 11:08:39;;;;;;;26.83;17.85;;;;;;;;;;5083112;28;20023;-72
2022/03/16 11:13:27;;;;;;;18.83;11.88;;;;;;;;;;5076161;28;20343;-71
2022/03/16 11:13:54;;;;;;;96.38;43.00;;;;;;;;;;5072204;28;20352;-73
2022/03/16 11:16:20;;;;;;;23.52;13.35;;;;;;;;;;5075465;28;20724;-72
2022/03/16 11:18:49;;;;;;;18.08;10.20;;;;;;;;;;5084142;28;20016;-70
2022/03/16 11:21:16;;;;;;;67.78;43.47;;;;;;;;;;5075707;28;20130;-70
2022/03/16 11:26:50;;;;;;;48.55;38.35;;;;;;;;;;5082127;28;20836;-70
2022/03/16 11:29:25;;;;;;;41.88;26.17;;;;;;;;;;5083823;28;20035;-69
2022/03/16 11:31:50;;;;;;;49.42;25.35;;;;;;;;;;5082704;28;20031;-69
2022/03/16 11:34:22;;;;;;;46.05;24.08;;;;;;;;;;5082110;28;20031;-71
2022/03/16 11:36:59;;;;;;;30.92;17.80;;;;;;;;;;5081907;28;20166;-71
2022/03/16 11:39:24;;;;;;;41.17;17.65;;;;;;;;;;5082522;28;20035;-70
2022/03/16 11:41:51;;;;;;;33.83;16.58;;;;;;;;;;5081865;28;20039;-71
2022/03/16 11:44:26;;;;;;;42.15;21.98;;;;;;;;;;5080738;28;20020;-70
2022/03/16 11:46:52;;;;;;;34.90;17.77;;;;;;;;;;5083101;28;20016;-68
2022/03/16 11:49:28;;;;;;;31.50;17.67;;;;;;;;;;5081606;28;20111;-68
2022/03/16 11:51:57;;;;;;;32.58;19.95;;;;;;;;;;5064157;28;20122;-70
2022/03/16 11:54:38;;;;;;;35.93;21.47;;;;;;;;;;5082582;28;20028;-69
2022/03/16 11:57:03;;;;;;;37.22;21.95;;;;;;;;;;5082281;28;20241;-72
2022/03/16 11:59:31;;;;;;;34.30;16.30;;;;;;;;;;5073224;28;20093;-70
2022/03/16 12:02:06;;;;;;;36.58;20.40;;;;;;;;;;5084442;28;20023;-71
2022/03/16 12:04:32;;;;;;;53.25;28.23;;;;;;;;;;5082450;28;20444;-69
2022/03/16 12:07:09;;;;;;;45.05;25.25;;;;;;;;;;5081333;28;20016;-69
2022/03/16 12:09:42;;;;;;;40.30;21.95;;;;;;;;;;5080671;28;20135;-70
2022/03/16 12:15:19;;;;;;;54.15;26.63;;;;;;;;;;5080615;28;20026;-72
2022/03/16 12:17:54;;;;;;;43.30;25.58;;;;;;;;;;5082804;28;20020;-68
2022/03/16 12:20:23;;;;;;;47.83;25.95;;;;;;;;;;5084747;28;20110;-71
2022/03/16 12:22:49;;;;;;;37.92;21.73;;;;;;;;;;5085261;28;20020;-71
2022/03/16 12:25:27;;;;;;;38.80;22.60;;;;;;;;;;5087223;28;20035;-71
2022/03/16 12:30:42;;;;;;;60.80;30.27;;;;;;;;;;5085945;28;20054;-70
2022/03/16 12:33:19;;;;;;;35.13;20.48;;;;;;;;;;5085747;28;20449;-71
2022/03/16 12:35:45;;;;;;;37.70;22.33;;;;;;;;;;5086027;28;20016;-70
2022/03/16 12:38:11;;;;;;;28.73;19.98;;;;;;;;;;5074419;28;20024;-71
2022/03/16 12:42:31;;;;;;;36.55;19.35;;;;;;;;;;5084516;28;20043;-70
2022/03/16 12:43:23;;;;;;;68.88;33.67;;;;;;;;;;5076489;28;20034;-70
2022/03/16 12:45:49;;;;;;;50.28;25.85;;;;;;;;;;5077600;28;20080;-71
2022/03/16 12:48:19;;;;;;;39.53;23.83;;;;;;;;;;5075765;28;20376;-71
2022/03/16 12:50:44;;;;;;;;;;;;;;;;;;5075660;28;20036;-71
2022/03/16 12:53:09;;;;;;;35.65;21.65;;;;;;;;;;5075781;28;19923;-71
2022/03/16 12:55:35;;;;;;;40.38;23.83;;;;;;;;;;5075339;28;20027;-72
2022/03/16 12:58:00;;;;;;;34.72;20.55;;;;;;;;;;5083669;28;20153;-71
2022/03/16 13:00:32;;;;;;;37.50;22.48;;;;;;;;;;5084213;28;20032;-71
2022/03/16 13:03:14;;;;;;;29.92;20.95;;;;;;;;;;5083773;28;20019;-70
2022/03/16 13:05:39;;;;;;;33.40;21.45;;;;;;;;;;5082858;28;20012;-70
2022/03/16 13:08:06;;;;;;;48.90;25.58;;;;;;;;;;5084759;28;20042;-72
2022/03/16 13:11:14;;;;;;;31.20;20.48;;;;;;;;;;5084023;28;20111;-71
2022/03/16 13:13:19;;;;;;;41.05;25.55;;;;;;;;;;5083643;28;20063;-71
2022/03/16 13:15:46;;;;;;;41.25;27.67;;;;;;;;;;5082704;28;20028;-71
2022/03/16 13:18:12;;;;;;;42.60;26.02;;;;;;;;;;5083983;28;20043;-72
2022/03/16 13:20:37;;;;;;;48.65;28.40;;;;;;;;;;5083464;28;20032;-72
2022/03/16 13:23:03;;;;;;;41.65;26.67;;;;;;;;;;5084512;28;20024;-72
2022/03/16 13:25:29;;;;;;;43.85;25.90;;;;;;;;;;5083379;28;20028;-72
2022/03/16 13:27:54;;;;;;;53.95;30.65;;;;;;;;;;5084537;28;20027;-72
2022/03/16 13:30:22;;;;;;;51.25;30.67;;;;;;;;;;5083552;28;20034;-72
2022/03/16 13:32:51;;;;;;;41.30;24.55;;;;;;;;;;5084741;28;20323;-72
2022/03/16 13:35:21;;;;;;;39.58;25.38;;;;;;;;;;5084035;28;20343;-72
2022/03/16 13:37:47;;;;;;;35.17;21.73;;;;;;;;;;5083752;28;20453;-72
2022/03/16 13:40:13;;;;;;;31.08;21.80;;;;;;;;;;5084318;28;20454;-72
2022/03/16 13:42:39;;;;;;;43.30;27.67;;;;;;;;;;5084640;28;20060;-72
2022/03/16 13:45:24;;;;;;;40.00;24.48;;;;;;;;;;5082443;28;20437;-72
2022/03/16 13:48:11;;;;;;;40.28;25.15;;;;;;;;;;5083275;28;20435;-72
2022/03/16 13:50:36;;;;;;;41.92;25.80;;;;;;;;;;5084370;28;20034;-72
2022/03/16 13:53:16;;;;;;;39.00;26.17;;;;;;;;;;5083014;28;20032;-72
2022/03/16 13:55:43;;;;;;;;;;;;;;;;;;5083584;28;20020;-72
2022/03/16 13:58:12;;;;;;;37.45;25.20;;;;;;;;;;5084199;28;19918;-72
2022/03/16 14:00:44;;;;;;;37.45;25.98;;;;;;;;;;5084140;28;20166;-72
2022/03/16 14:03:11;;;;;;;45.50;28.55;;;;;;;;;;5082364;28;20039;-72
2022/03/16 14:05:39;;;;;;;44.95;30.00;;;;;;;;;;5082774;28;20059;-72
2022/03/16 14:08:09;;;;;;;52.22;32.50;;;;;;;;;;5082922;28;20035;-72
2022/03/16 14:10:35;;;;;;;47.83;31.15;;;;;;;;;;5083427;28;20110;-73
2022/03/16 14:13:01;;;;;;;51.40;37.47;;;;;;;;;;5073655;28;20124;-72
2022/03/16 14:15:27;;;;;;;45.08;31.65;;;;;;;;;;5082798;28;20023;-72
2022/03/16 14:17:55;;;;;;;54.00;39.60;;;;;;;;;;5083647;28;20536;-71
2022/03/16 14:20:41;;;;;;;65.28;46.42;;;;;;;;;;5074202;28;20050;-72
2022/03/16 14:23:08;;;;;;;69.95;49.47;;;;;;;;;;5072936;28;20119;-72